aviador You're here:

LFST Decoded Metar

STRASSBOURG in FRANCE
Report Time2017-08-19 20:00:00
UTC Time2017-08-19 20:23:56
Flight Rules vfr VFR
Wind230° at 03 kt
W.Decomp.*RWY 23: 3.0 kt HW 0 kt LCW
W.Rank230° ranks 15
Current wind is below 230° avg. (6.1)
Visibility9999 m
Phenomena:N/A
Clouds:N/A
Expected CloudBase > 1,200 ft AGL from Temp-Dew spread
CeilingNone
Temp14°C (ISA -0)
Dew Point11°C (82% RH)
AAT13.2°C
QNH1022 hPa
Density Alt381 ft
Elevation505 ft
Report Wrong Elevation
Raw Report
METAR LFST 192000Z AUTO 23003KT CAVOK 14/11 Q1022 NOSIG=

Extra information for LFST:More info

Metar Taf Metar & Taf Last 4 Metars F.Rules Stats Wind Profile Meteogram Temp Stats Airport Information Weather charts Add Link Nearby VenuesMetar ALERT Operation Metar Decoded Social comments